Underhill, Vermont
Current Conditions -  °F | °C
As of 3:54 AM on Saturday 29 Nov 2014 (Local Time) from KBTV Reporting Station
Overcast Overcast  
Wind Chill: 18°   Ceiling: 3500
Heat Index: 18°   Visibility: 10mi
Dew Point: 13°   Wind: 3mph
Humidity: 81%   Direction: 110°ESE
Pressure: 30.23"   Gusts: NA
Location:  44.53°N, 72.95°W
Report Text: KBTV 290854Z AUTO 11003KT 10SM OVC035 M08/M11 A3023 RMK AO2 SLP243 T10781106 50008
Loading
Personal Weather Stations






























Interactive Weather Map New forecast layout! Learn more

10-Day Weather Forecast

Advertisements
Track Severe Weather on mobile